Time;durP1;ratioP1;P1;durP2;ratioP2;P2;SDS_P1;SDS_P2;PMS_P1;PMS_P2;Temp;Humidity;BMP_temperature;BMP_pressure;BME280_temperature;BME280_humidity;BME280_pressure;Samples;Min_cycle;Max_cycle;Signal;HPM_P1;HPM_P2
2023/10/31 00:01:47;;;;;;;19.73;17.63;;;;;;;8.75;100.00;99502.56;5019577;28;20410;-72
2023/10/31 00:04:12;;;;;;;19.70;17.63;;;;;;;8.72;100.00;99506.25;5018463;28;20376;-72
2023/10/31 00:06:37;;;;;;;18.90;16.85;;;;;;;8.71;100.00;99516.00;5019201;28;20031;-72
2023/10/31 00:09:03;;;;;;;21.30;16.73;;;;;;;8.68;100.00;99510.03;5030463;28;20406;-71
2023/10/31 00:11:28;;;;;;;16.88;15.13;;;;;;;8.67;100.00;99517.16;5017929;28;20478;-72
2023/10/31 00:13:54;;;;;;;16.40;14.65;;;;;;;8.65;100.00;99528.81;5014959;28;20556;-72
2023/10/31 00:16:19;;;;;;;15.52;13.35;;;;;;;8.64;100.00;99530.59;5014054;28;20392;-72
2023/10/31 00:18:44;;;;;;;16.65;14.00;;;;;;;8.65;100.00;99527.03;5019240;28;20222;-72
2023/10/31 00:21:10;;;;;;;16.15;12.88;;;;;;;8.65;100.00;99526.16;5017715;28;20025;-72
2023/10/31 00:23:43;;;;;;;13.18;11.70;;;;;;;8.64;100.00;99525.31;5016439;28;20541;-70
2023/10/31 00:26:09;;;;;;;14.45;11.35;;;;;;;8.66;100.00;99523.41;5018154;28;20061;-71
2023/10/31 00:28:35;;;;;;;14.82;10.75;;;;;;;8.64;100.00;99535.06;5019741;28;20030;-72
2023/10/31 00:31:00;;;;;;;13.38;10.00;;;;;;;8.65;100.00;99531.47;5026272;28;20032;-72
2023/10/31 00:33:27;;;;;;;14.88;9.27;;;;;;;8.60;100.00;99534.41;5014444;28;20497;-72
2023/10/31 00:35:52;;;;;;;10.80;9.13;;;;;;;8.60;100.00;99536.22;5020743;28;20067;-72
2023/10/31 00:38:17;;;;;;;10.85;8.30;;;;;;;8.58;100.00;99538.97;5032599;28;20095;-73
2023/10/31 00:40:43;;;;;;;11.65;7.97;;;;;;;8.58;100.00;99544.28;5036678;28;20052;-72
2023/10/31 00:43:08;;;;;;;11.30;7.45;;;;;;;8.60;100.00;99552.97;5031597;28;20069;-73
2023/10/31 00:45:33;;;;;;;9.32;6.80;;;;;;;8.62;100.00;99548.44;5033579;28;20053;-72
2023/10/31 00:47:59;;;;;;;9.48;6.93;;;;;;;8.61;100.00;99549.38;5031037;28;20091;-71
2023/10/31 00:50:24;;;;;;;12.88;7.80;;;;;;;8.60;100.00;99552.13;5031806;28;20056;-71
2023/10/31 00:52:49;;;;;;;10.25;6.95;;;;;;;8.51;100.00;99539.44;5024096;28;20067;-71
2023/10/31 00:55:15;;;;;;;13.15;6.97;;;;;;;8.61;100.00;99553.81;5016154;28;20109;-71
2023/10/31 00:57:40;;;;;;;15.63;8.68;;;;;;;8.61;100.00;99554.69;5015586;28;20156;-71
2023/10/31 01:00:06;;;;;;;12.95;8.10;;;;;;;8.68;100.00;99557.78;5021362;28;20112;-72
2023/10/31 01:02:31;;;;;;;15.20;10.25;;;;;;;8.62;100.00;99558.19;5020484;28;20034;-70
2023/10/31 01:04:57;;;;;;;20.52;13.00;;;;;;;8.63;100.00;99560.75;5019797;28;21044;-71
2023/10/31 01:07:22;;;;;;;20.95;15.02;;;;;;;8.63;100.00;99559.88;5028107;28;20072;-71
2023/10/31 01:09:47;;;;;;;22.00;15.07;;;;;;;8.65;100.00;99564.16;5019845;28;20073;-72
2023/10/31 01:12:13;;;;;;;23.63;16.45;;;;;;;8.68;100.00;99573.72;5009522;28;20475;-73
2023/10/31 01:14:38;;;;;;;27.48;17.77;;;;;;;8.69;100.00;99581.59;5015651;28;20026;-72
2023/10/31 01:17:05;;;;;;;25.77;18.70;;;;;;;8.67;100.00;99578.16;5011660;28;20030;-71
2023/10/31 01:19:30;;;;;;;29.70;22.20;;;;;;;8.66;100.00;99567.66;5035462;28;20033;-71
2023/10/31 01:21:55;;;;;;;31.98;22.73;;;;;;;8.68;100.00;99573.72;5016704;28;20479;-72
2023/10/31 01:24:23;;;;;;;33.42;23.63;;;;;;;8.72;100.00;99575.22;5016743;28;20501;-72
2023/10/31 01:26:48;;;;;;;34.75;24.92;;;;;;;8.70;100.00;99577.97;5022213;28;20468;-71
2023/10/31 01:29:14;;;;;;;39.75;27.35;;;;;;;8.72;100.00;99576.06;5024567;28;20095;-71
2023/10/31 01:31:41;;;;;;;38.05;27.05;;;;;;;8.74;100.00;99583.94;5013343;28;20029;-72
2023/10/31 01:34:06;;;;;;;41.28;27.67;;;;;;;8.78;100.00;99581.94;5014423;28;20099;-72
2023/10/31 01:36:32;;;;;;;40.88;28.17;;;;;;;8.79;100.00;99583.66;5011378;28;20506;-72
2023/10/31 01:38:57;;;;;;;39.63;29.45;;;;;;;8.81;100.00;99584.41;5013578;28;20021;-71
2023/10/31 01:41:22;;;;;;;43.70;29.38;;;;;;;8.81;100.00;99589.69;5019059;28;20087;-72
2023/10/31 01:43:48;;;;;;;44.95;31.33;;;;;;;8.83;100.00;99593.13;5033200;28;20056;-71
2023/10/31 01:46:14;;;;;;;42.38;29.75;;;;;;;8.82;100.00;99586.97;5026684;28;20033;-72
2023/10/31 01:48:40;;;;;;;43.75;30.50;;;;;;;8.84;100.00;99590.34;5023351;28;20068;-72
2023/10/31 01:51:05;;;;;;;42.50;28.95;;;;;;;8.83;100.00;99587.81;5028675;28;20472;-74
2023/10/31 01:53:35;;;;;;;41.00;30.30;;;;;;;8.81;100.00;99579.94;5017517;28;20032;-72
2023/10/31 01:56:05;;;;;;;44.70;31.92;;;;;;;8.85;100.00;99597.38;5023370;28;20033;-71
2023/10/31 01:58:33;;;;;;;42.17;30.08;;;;;;;8.84;100.00;99589.50;5008832;28;20472;-72
2023/10/31 02:01:00;;;;;;;40.78;29.58;;;;;;;8.87;100.00;99597.28;5010848;28;20100;-73
2023/10/31 02:03:27;;;;;;;43.28;30.33;;;;;;;8.87;100.00;99598.13;5015949;28;20030;-72
2023/10/31 02:05:52;;;;;;;40.38;29.77;;;;;;;8.85;100.00;99597.38;5020755;28;20069;-72
2023/10/31 02:08:18;;;;;;;40.60;29.48;;;;;;;8.89;100.00;99604.19;5016948;28;20383;-71
2023/10/31 02:10:43;;;;;;;42.28;29.83;;;;;;;8.88;100.00;99601.63;5030148;28;20029;-73
2023/10/31 02:13:12;;;;;;;39.35;28.70;;;;;;;8.90;100.00;99597.94;5022563;28;20486;-72
2023/10/31 02:15:37;;;;;;;43.25;28.73;;;;;;;8.86;100.00;99585.81;5010853;28;20034;-71
2023/10/31 02:18:03;;;;;;;37.80;28.55;;;;;;;8.88;100.00;99585.72;5015367;28;20036;-71
2023/10/31 02:20:29;;;;;;;39.72;29.70;;;;;;;8.88;100.00;99591.88;5010737;28;20034;-72
2023/10/31 02:22:54;;;;;;;41.38;28.60;;;;;;;8.88;100.00;99591.88;5013714;28;20029;-73
2023/10/31 02:25:20;;;;;;;43.00;30.05;;;;;;;8.90;100.00;99592.63;5025174;28;20176;-72
2023/10/31 02:27:45;;;;;;;39.47;28.70;;;;;;;8.89;100.00;99592.72;5014931;28;20626;-73
2023/10/31 02:30:11;;;;;;;38.08;29.08;;;;;;;8.94;100.00;99591.47;5016727;28;20029;-72
2023/10/31 02:32:36;;;;;;;42.92;30.17;;;;;;;8.94;100.00;99587.97;5017838;28;20163;-72
2023/10/31 02:35:02;;;;;;;40.83;30.15;;;;;;;8.95;100.00;99585.22;5016955;28;20036;-71
2023/10/31 02:37:27;;;;;;;37.80;28.92;;;;;;;8.93;100.00;99583.63;5015126;28;20502;-71
2023/10/31 02:39:53;;;;;;;39.80;30.27;;;;;;;8.95;100.00;99592.34;5016766;28;20022;-72
2023/10/31 02:42:18;;;;;;;41.60;31.30;;;;;;;8.93;100.00;99597.72;5014659;28;20479;-71
2023/10/31 02:44:43;;;;;;;37.75;29.67;;;;;;;8.94;100.00;99599.41;5035071;28;20104;-72
2023/10/31 02:47:09;;;;;;;43.65;32.13;;;;;;;8.96;100.00;99602.00;5018001;28;20026;-71
2023/10/31 02:49:35;;;;;;;45.13;32.47;;;;;;;8.98;100.00;99608.91;5029891;28;20044;-74
2023/10/31 02:52:00;;;;;;;43.78;33.22;;;;;;;8.98;100.00;99602.75;5008159;28;20029;-74
2023/10/31 02:54:25;;;;;;;42.55;32.88;;;;;;;9.00;100.00;99607.97;5021667;28;20489;-72
2023/10/31 02:56:51;;;;;;;40.70;31.52;;;;;;;8.97;100.00;99611.66;5023079;28;20060;-72
2023/10/31 02:59:16;;;;;;;42.65;31.10;;;;;;;8.95;100.00;99610.91;5029579;28;21275;-73
2023/10/31 03:01:42;;;;;;;39.92;30.38;;;;;;;8.95;100.00;99617.06;5015912;28;20069;-73
2023/10/31 03:04:07;;;;;;;37.28;30.23;;;;;;;8.97;100.00;99617.81;5029199;28;20137;-73
2023/10/31 03:06:32;;;;;;;38.35;29.88;;;;;;;8.96;100.00;99618.78;5017881;28;20029;-72
2023/10/31 03:08:58;;;;;;;41.78;32.45;;;;;;;8.98;100.00;99621.31;5015093;28;20028;-72
2023/10/31 03:11:24;;;;;;;40.20;31.90;;;;;;;8.96;100.00;99626.72;5021647;28;20033;-74
2023/10/31 03:13:50;;;;;;;41.65;31.92;;;;;;;8.97;100.00;99633.75;5012799;28;20026;-72
2023/10/31 03:16:16;;;;;;;37.45;29.92;;;;;;;9.02;100.00;99637.91;5035182;28;20211;-73
2023/10/31 03:18:42;;;;;;;39.33;30.27;;;;;;;9.02;100.00;99636.09;5017222;28;20037;-72
2023/10/31 03:21:07;;;;;;;38.05;30.20;;;;;;;9.02;100.00;99636.09;5015630;28;20033;-72
2023/10/31 03:23:33;;;;;;;34.20;27.88;;;;;;;9.03;100.00;99636.94;5025733;28;20108;-72
2023/10/31 03:25:58;;;;;;;36.13;28.48;;;;;;;9.05;100.00;99645.69;5007937;28;20423;-72
2023/10/31 03:28:24;;;;;;;37.22;28.30;;;;;;;9.03;100.00;99642.25;5024422;28;20029;-72
2023/10/31 03:30:49;;;;;;;37.38;29.52;;;;;;;8.97;100.00;99643.50;5013729;28;20056;-73
2023/10/31 03:33:18;;;;;;;37.42;29.75;;;;;;;8.94;100.00;99652.50;5021087;28;20083;-73
2023/10/31 03:35:44;;;;;;;35.85;29.25;;;;;;;8.92;100.00;99649.09;5021655;28;20115;-72
2023/10/31 03:38:10;;;;;;;36.03;28.77;;;;;;;8.89;100.00;99651.94;5014339;28;20025;-73
2023/10/31 03:40:36;;;;;;;37.15;29.60;;;;;;;8.88;100.00;99646.75;5019512;28;20024;-74
2023/10/31 03:43:01;;;;;;;36.53;28.23;;;;;;;8.91;100.00;99658.03;5024839;28;20438;-71
2023/10/31 03:45:26;;;;;;;33.35;28.40;;;;;;;8.91;100.00;99655.38;5019011;28;20029;-72
2023/10/31 03:47:52;;;;;;;34.38;27.75;;;;;;;8.93;100.00;99671.19;5019129;28;20033;-74
2023/10/31 03:50:17;;;;;;;32.80;27.85;;;;;;;8.93;100.00;99666.72;5021547;28;20557;-73
2023/10/31 03:52:42;;;;;;;35.78;27.60;;;;;;;8.94;100.00;99673.72;5017278;28;20184;-73
2023/10/31 03:55:08;;;;;;;35.85;29.00;;;;;;;8.95;100.00;99683.41;5015899;28;20026;-72
2023/10/31 03:57:33;;;;;;;32.75;27.17;;;;;;;8.95;100.00;99675.47;5016697;28;20038;-72
2023/10/31 03:59:59;;;;;;;34.42;27.95;;;;;;;8.94;100.00;99681.69;5021059;28;20563;-72
2023/10/31 04:02:24;;;;;;;30.23;26.17;;;;;;;8.96;100.00;99684.28;5020527;28;20091;-73
2023/10/31 04:04:50;;;;;;;33.53;27.27;;;;;;;9.00;100.00;99690.25;5016732;28;20446;-73
2023/10/31 04:07:15;;;;;;;31.65;27.27;;;;;;;9.01;100.00;99695.44;5015301;28;20026;-72
2023/10/31 04:09:40;;;;;;;32.95;26.83;;;;;;;9.00;100.00;99696.41;5015268;28;20025;-72
2023/10/31 04:12:06;;;;;;;32.58;26.25;;;;;;;9.01;100.00;99697.25;5011052;28;20030;-73
2023/10/31 04:14:31;;;;;;;30.15;25.55;;;;;;;8.97;100.00;99694.78;5016888;28;20029;-73
2023/10/31 04:16:57;;;;;;;30.58;25.83;;;;;;;8.99;100.00;99705.31;5021395;28;20356;-71
2023/10/31 04:19:22;;;;;;;31.42;27.30;;;;;;;8.96;100.00;99695.72;5012480;28;20036;-73
2023/10/31 04:21:47;;;;;;;29.98;25.35;;;;;;;8.97;100.00;99704.53;5015259;28;20029;-73
2023/10/31 04:24:13;;;;;;;27.27;23.65;;;;;;;8.97;100.00;99709.84;5032300;28;20033;-73
2023/10/31 04:26:40;;;;;;;26.55;23.50;;;;;;;8.97;100.00;99716.00;5019448;28;20064;-73
2023/10/31 04:29:05;;;;;;;25.75;22.95;;;;;;;8.95;100.00;99715.25;5020079;28;20100;-73
2023/10/31 04:31:31;;;;;;;25.00;22.25;;;;;;;8.95;100.00;99723.22;5023877;28;20025;-72
2023/10/31 04:33:56;;;;;;;25.00;22.33;;;;;;;8.93;100.00;99724.25;5020621;28;20259;-73
2023/10/31 04:36:22;;;;;;;25.15;22.45;;;;;;;8.89;100.00;99720.09;5020440;28;20029;-73
2023/10/31 04:38:47;;;;;;;25.42;22.15;;;;;;;8.89;100.00;99728.91;5017616;28;20261;-72
2023/10/31 04:41:12;;;;;;;24.70;22.10;;;;;;;8.94;100.00;99734.75;5010492;28;20029;-73
2023/10/31 04:43:41;;;;;;;25.15;22.55;;;;;;;8.94;100.00;99748.03;5018021;28;20021;-72
2023/10/31 04:46:07;;;;;;;24.58;21.90;;;;;;;8.96;100.00;99755.94;5018757;28;20291;-72
2023/10/31 04:48:32;;;;;;;25.00;22.35;;;;;;;8.94;100.00;99747.19;5010153;28;20037;-74
2023/10/31 04:50:58;;;;;;;26.35;23.60;;;;;;;8.92;100.00;99752.59;5018836;28;20052;-71
2023/10/31 04:53:23;;;;;;;25.98;23.23;;;;;;;8.93;100.00;99759.59;5015687;28;20108;-72
2023/10/31 04:55:49;;;;;;;26.92;24.02;;;;;;;8.92;100.00;99768.53;5009984;28;20133;-73
2023/10/31 04:58:14;;;;;;;28.17;24.30;;;;;;;8.88;100.00;99759.03;5015888;28;20588;-72
2023/10/31 05:00:40;;;;;;;28.17;25.02;;;;;;;8.86;100.00;99771.56;5021606;28;20029;-72
2023/10/31 05:03:06;;;;;;;27.27;24.13;;;;;;;8.82;100.00;99771.81;5022201;28;20496;-72
2023/10/31 05:05:31;;;;;;;30.05;25.70;;;;;;;8.81;100.00;99770.13;5015367;28;20099;-71
2023/10/31 05:07:58;;;;;;;30.05;25.30;;;;;;;8.81;100.00;99765.66;5018310;28;20302;-70
2023/10/31 05:10:23;;;;;;;31.70;25.70;;;;;;;8.81;100.00;99776.28;5023012;28;20025;-71
2023/10/31 05:12:50;;;;;;;33.20;27.58;;;;;;;8.80;100.00;99774.56;5021252;28;20033;-71
2023/10/31 05:15:15;;;;;;;35.38;27.58;;;;;;;8.78;100.00;99780.91;5022226;28;20017;-71
2023/10/31 05:17:41;;;;;;;32.58;27.65;;;;;;;8.79;100.00;99778.19;5021570;28;20025;-70
2023/10/31 05:20:06;;;;;;;30.20;26.90;;;;;;;8.79;100.00;99769.38;5020497;28;20025;-71
2023/10/31 05:22:32;;;;;;;29.08;25.45;;;;;;;8.76;100.00;99778.34;5016727;28;20116;-72
2023/10/31 05:24:57;;;;;;;28.58;25.63;;;;;;;8.75;100.00;99776.66;5012471;28;20567;-72
2023/10/31 05:27:23;;;;;;;29.80;25.92;;;;;;;8.73;100.00;99774.06;5010386;28;20500;-72
2023/10/31 05:29:48;;;;;;;30.10;26.65;;;;;;;8.71;100.00;99770.69;5020087;28;20172;-73
2023/10/31 05:32:13;;;;;;;31.45;26.98;;;;;;;8.71;100.00;99780.44;5010779;28;20556;-72
2023/10/31 05:34:38;;;;;;;31.48;27.73;;;;;;;8.68;100.00;99777.97;5015883;28;20551;-72
2023/10/31 05:37:06;;;;;;;30.70;26.45;;;;;;;8.64;100.00;99785.25;5014450;28;20402;-72
2023/10/31 05:39:31;;;;;;;30.50;26.20;;;;;;;8.62;100.00;99781.84;5022708;28;20071;-71
2023/10/31 05:41:56;;;;;;;30.75;27.08;;;;;;;8.59;100.00;99787.31;5014745;28;20072;-71
2023/10/31 05:44:22;;;;;;;30.20;26.90;;;;;;;8.58;100.00;99790.94;5013944;28;20442;-72
2023/10/31 05:46:47;;;;;;;31.10;26.17;;;;;;;8.59;100.00;99789.97;5022448;28;20033;-71
2023/10/31 05:49:13;;;;;;;30.33;26.58;;;;;;;8.60;100.00;99794.34;5018924;28;20033;-72
2023/10/31 05:51:38;;;;;;;30.50;27.08;;;;;;;8.58;100.00;99792.72;5017574;28;20038;-71
2023/10/31 05:54:07;;;;;;;30.80;26.08;;;;;;;8.58;100.00;99790.09;5020136;28;20469;-71
2023/10/31 05:56:32;;;;;;;29.67;26.48;;;;;;;8.58;100.00;99788.28;5011890;28;20330;-73
2023/10/31 05:58:57;;;;;;;28.50;25.00;;;;;;;8.59;100.00;99800.59;5021906;28;20040;-73
2023/10/31 06:01:23;;;;;;;27.17;24.27;;;;;;;8.57;100.00;99801.59;5020254;28;20033;-72
2023/10/31 06:03:48;;;;;;;26.77;23.88;;;;;;;8.53;100.00;99808.03;5035687;28;20041;-72
2023/10/31 06:06:13;;;;;;;26.77;23.88;;;;;;;8.51;100.00;99815.25;5031249;28;20257;-73
2023/10/31 06:08:39;;;;;;;26.58;23.88;;;;;;;8.44;100.00;99810.31;5010888;28;20029;-73
2023/10/31 06:11:06;;;;;;;25.80;23.08;;;;;;;8.39;100.00;99817.66;5021584;28;20429;-72
2023/10/31 06:13:33;;;;;;;26.45;23.42;;;;;;;8.32;100.00;99821.59;5015911;28;20044;-72
2023/10/31 06:16:00;;;;;;;23.90;21.00;;;;;;;8.29;100.00;99836.81;5025433;28;20045;-73
2023/10/31 06:18:26;;;;;;;24.55;21.95;;;;;;;8.27;100.00;99834.25;5026374;28;20025;-72
2023/10/31 06:20:52;;;;;;;24.85;22.25;;;;;;;8.27;100.00;99839.53;5010104;28;20330;-73
2023/10/31 06:23:17;;;;;;;26.65;23.42;;;;;;;8.25;100.00;99830.84;5018124;28;20383;-72
2023/10/31 06:25:42;;;;;;;25.67;22.60;;;;;;;8.27;100.00;99842.19;5012756;28;20049;-72
2023/10/31 06:28:08;;;;;;;27.67;23.73;;;;;;;8.24;100.00;99847.69;5023663;28;20475;-73
2023/10/31 06:30:33;;;;;;;29.67;25.05;;;;;;;8.20;100.00;99844.38;5016565;28;20508;-72
2023/10/31 06:33:00;;;;;;;29.65;24.58;;;;;;;8.22;100.00;99847.75;5019959;28;20566;-72
2023/10/31 06:35:25;;;;;;;30.00;26.55;;;;;;;8.27;100.00;99847.50;5023552;28;20175;-73
2023/10/31 06:37:56;;;;;;;32.92;27.60;;;;;;;8.30;100.00;99860.59;5013603;28;20108;-72
2023/10/31 06:40:22;;;;;;;31.77;27.52;;;;;;;8.35;100.00;99852.38;5013720;28;20037;-72
2023/10/31 06:42:47;;;;;;;31.02;27.42;;;;;;;8.37;100.00;99853.19;5030965;28;20048;-72
2023/10/31 06:45:13;;;;;;;32.25;28.63;;;;;;;8.31;100.00;99854.34;5025069;28;20033;-72
2023/10/31 06:47:38;;;;;;;34.65;27.73;;;;;;;8.29;100.00;99858.88;5039177;28;20036;-73
2023/10/31 06:50:05;;;;;;;31.20;27.80;;;;;;;8.29;100.00;99871.28;5031884;28;20033;-76
2023/10/31 06:52:32;;;;;;;31.38;27.98;;;;;;;8.24;100.00;99859.16;5033592;28;20064;-76
2023/10/31 06:54:57;;;;;;;31.15;27.80;;;;;;;8.31;100.00;99859.63;5027221;28;20183;-75
2023/10/31 06:57:23;;;;;;;31.80;27.65;;;;;;;8.40;100.00;99861.81;5032710;28;20096;-76
2023/10/31 06:59:48;;;;;;;30.13;26.88;;;;;;;8.42;100.00;99864.38;5036548;28;20040;-74
2023/10/31 07:02:13;;;;;;;28.83;25.77;;;;;;;8.47;100.00;99867.59;5029764;28;20543;-75
2023/10/31 07:04:39;;;;;;;27.80;24.80;;;;;;;8.50;100.00;99877.19;5029768;28;20028;-75
2023/10/31 07:07:05;;;;;;;28.27;25.20;;;;;;;8.46;100.00;99865.91;5025009;28;20026;-75
2023/10/31 07:09:30;;;;;;;25.65;23.05;;;;;;;8.52;100.00;99875.28;5030533;28;20056;-73
2023/10/31 07:11:55;;;;;;;24.33;21.92;;;;;;;8.53;100.00;99887.59;5022050;28;20043;-74
2023/10/31 07:14:21;;;;;;;23.15;20.80;;;;;;;8.50;100.00;99880.69;5020044;28;20247;-73
2023/10/31 07:16:48;;;;;;;21.30;19.13;;;;;;;8.47;100.00;99894.97;5011887;28;20037;-72
2023/10/31 07:19:14;;;;;;;21.00;19.00;;;;;;;8.43;100.00;99888.13;5019355;28;20096;-74
2023/10/31 07:21:39;;;;;;;20.25;18.25;;;;;;;8.42;100.00;99896.19;5019927;28;20048;-74
2023/10/31 07:24:08;;;;;;;20.45;18.40;;;;;;;8.32;100.00;99893.19;5020514;28;20108;-75
2023/10/31 07:26:37;;;;;;;21.63;19.52;;;;;;;8.30;100.00;99889.75;5017392;28;20057;-74
2023/10/31 07:29:02;;;;;;;20.50;18.45;;;;;;;8.45;100.00;99899.53;5022313;28;20045;-73
2023/10/31 07:31:28;;;;;;;21.90;19.73;;;;;;;8.57;100.00;99902.41;5019279;28;20087;-73
2023/10/31 07:33:53;;;;;;;21.25;19.15;;;;;;;8.69;100.00;99909.66;5022381;28;20387;-74
2023/10/31 07:36:18;;;;;;;21.73;19.52;;;;;;;8.67;100.00;99906.25;5022510;28;20036;-74
2023/10/31 07:38:44;;;;;;;20.38;18.40;;;;;;;8.66;100.00;99899.25;5018981;28;20029;-73
2023/10/31 07:41:09;;;;;;;21.17;18.98;;;;;;;8.76;100.00;99913.66;5012922;28;20037;-75
2023/10/31 07:43:38;;;;;;;18.63;16.88;;;;;;;8.79;100.00;99918.81;5019966;28;20033;-73
2023/10/31 07:46:03;;;;;;;19.50;17.70;;;;;;;8.78;100.00;99921.53;5020032;28;20033;-74
2023/10/31 07:48:29;;;;;;;19.30;17.50;;;;;;;8.76;100.00;99911.00;5020907;28;20052;-74
2023/10/31 07:50:54;;;;;;;20.27;18.27;;;;;;;8.81;100.00;99919.56;5020859;28;20668;-73
2023/10/31 07:53:19;;;;;;;20.17;18.27;;;;;;;8.87;100.00;99919.22;5017335;28;20361;-73
2023/10/31 07:55:45;;;;;;;20.35;18.38;;;;;;;8.88;100.00;99920.06;5017948;28;20121;-75
2023/10/31 07:58:10;;;;;;;21.05;18.95;;;;;;;8.86;100.00;99914.84;5018405;28;20514;-76
2023/10/31 08:00:36;;;;;;;23.02;20.67;;;;;;;8.90;100.00;99921.69;5018819;28;20041;-75
2023/10/31 08:03:02;;;;;;;22.00;20.00;;;;;;;8.94;100.00;99925.84;5016145;28;20036;-75
2023/10/31 08:05:27;;;;;;;23.13;20.92;;;;;;;9.01;100.00;99920.19;5019341;28;20029;-74
2023/10/31 08:07:53;;;;;;;24.23;21.75;;;;;;;9.01;100.00;99925.50;5017127;28;20112;-74
2023/10/31 08:10:18;;;;;;;24.08;21.58;;;;;;;8.96;100.00;99928.44;5016655;28;20040;-74
2023/10/31 08:12:44;;;;;;;24.85;22.38;;;;;;;8.94;100.00;99925.84;5021484;28;20104;-75
2023/10/31 08:15:09;;;;;;;25.33;22.83;;;;;;;8.96;100.00;99931.09;5033725;28;20037;-73
2023/10/31 08:17:35;;;;;;;25.15;22.70;;;;;;;9.03;100.00;99931.56;5019387;28;20041;-75
2023/10/31 08:20:03;;;;;;;28.83;24.92;;;;;;;9.03;100.00;99939.53;5015076;28;20033;-76
2023/10/31 08:22:28;;;;;;;26.85;24.05;;;;;;;9.04;100.00;99935.94;5017447;28;20184;-75
2023/10/31 08:24:54;;;;;;;27.85;24.85;;;;;;;9.04;100.00;99942.09;5019010;28;20037;-76
2023/10/31 08:27:19;;;;;;;27.45;24.45;;;;;;;9.05;100.00;99938.50;5017102;28;20575;-74
2023/10/31 08:29:44;;;;;;;27.83;22.88;;;;;;;9.23;100.00;99937.41;5029474;28;20434;-74
2023/10/31 08:32:10;;;;;;;26.65;22.73;;;;;;;9.35;100.00;99945.59;5019338;28;20026;-74
2023/10/31 08:34:35;;;;;;;23.92;21.40;;;;;;;9.35;100.00;99943.78;5020647;28;20037;-77
2023/10/31 08:37:00;;;;;;;25.35;22.65;;;;;;;9.30;100.00;99939.69;5016460;28;20414;-74
2023/10/31 08:39:26;;;;;;;24.42;20.80;;;;;;;9.27;100.00;99946.03;5019874;28;20086;-72
2023/10/31 08:41:56;;;;;;;22.98;20.40;;;;;;;9.30;100.00;99948.53;5014373;28;20064;-73
2023/10/31 08:44:21;;;;;;;23.08;19.85;;;;;;;9.32;100.00;99946.66;5015061;28;20048;-73
2023/10/31 08:46:47;;;;;;;20.33;18.15;;;;;;;9.50;100.00;99949.97;5016565;28;20479;-73
2023/10/31 08:49:14;;;;;;;21.90;18.95;;;;;;;9.65;100.00;99962.31;5016890;28;20028;-74
2023/10/31 08:51:39;;;;;;;20.10;17.13;;;;;;;9.66;100.00;99964.06;5014213;28;20037;-73
2023/10/31 08:54:05;;;;;;;22.55;18.88;;;;;;;9.75;100.00;99973.25;5009300;28;20326;-74
2023/10/31 08:56:30;;;;;;;22.13;18.10;;;;;;;9.75;100.00;99981.22;5017483;28;20021;-74
2023/10/31 08:58:56;;;;;;;18.92;16.92;;;;;;;9.73;100.00;99986.63;5015547;28;20117;-72
2023/10/31 09:01:22;;;;;;;19.45;17.35;;;;;;;9.67;100.00;99980.84;5013670;28;20033;-74
2023/10/31 09:03:47;;;;;;;19.58;16.73;;;;;;;9.67;100.00;99978.19;5017205;28;20037;-74
2023/10/31 09:06:13;;;;;;;18.85;16.95;;;;;;;9.64;100.00;99995.16;5018670;28;20048;-74
2023/10/31 09:08:38;;;;;;;18.02;16.13;;;;;;;9.86;100.00;100000.00;5020417;28;20025;-73
2023/10/31 09:11:05;;;;;;;19.55;16.70;;;;;;;10.01;100.00;99998.22;5014103;28;20491;-74
2023/10/31 09:13:32;;;;;;;18.23;15.95;;;;;;;9.91;100.00;100005.06;5016611;28;20492;-75
2023/10/31 09:15:58;;;;;;;17.38;15.57;;;;;;;9.74;100.00;100006.09;5015682;28;20105;-74
2023/10/31 09:18:24;;;;;;;18.63;16.08;;;;;;;9.86;100.00;100004.47;5014614;28;20116;-74
2023/10/31 09:20:49;;;;;;;17.08;15.27;;;;;;;10.07;100.00;100012.94;5011525;28;20030;-74
2023/10/31 09:23:17;;;;;;;17.63;15.43;;;;;;;10.07;100.00;100021.75;5016412;28;20077;-74
2023/10/31 09:25:42;;;;;;;18.55;15.40;;;;;;;10.16;100.00;100031.84;5016955;28;20399;-73
2023/10/31 09:28:08;;;;;;;16.02;14.50;;;;;;;10.11;100.00;100030.41;5016897;28;20068;-74
2023/10/31 09:30:33;;;;;;;16.02;14.18;;;;;;;10.14;100.00;100039.06;5015513;28;20021;-74
2023/10/31 09:32:58;;;;;;;16.52;14.93;;;;;;;10.16;100.00;100038.97;5017498;28;20060;-73
2023/10/31 09:35:24;;;;;;;16.27;14.60;;;;;;;10.07;100.00;100050.16;5020333;28;20438;-74
2023/10/31 09:37:50;;;;;;;17.38;15.57;;;;;;;9.91;100.00;100048.44;5021667;28;20028;-73
2023/10/31 09:40:15;;;;;;;19.38;15.05;;;;;;;9.81;100.00;100047.28;5018768;28;20033;-75
2023/10/31 09:42:45;;;;;;;17.58;15.60;;;;;;;9.90;100.00;100053.84;5020438;28;20494;-73
2023/10/31 09:45:11;;;;;;;19.92;15.70;;;;;;;10.47;100.00;100059.22;5011928;28;20046;-73
2023/10/31 09:47:37;;;;;;;19.17;14.52;;;;;;;10.81;100.00;100060.59;5020303;28;20033;-75
2023/10/31 09:50:03;;;;;;;16.85;14.70;;;;;;;10.87;100.00;100067.34;5025295;28;20104;-74
2023/10/31 09:52:29;;;;;;;16.75;14.35;;;;;;;10.76;100.00;100062.69;5025199;28;20490;-73
2023/10/31 09:54:55;;;;;;;18.40;14.27;;;;;;;10.78;100.00;100073.22;5011239;28;20671;-73
2023/10/31 09:57:21;;;;;;;16.90;14.63;;;;;;;10.80;100.00;100077.50;5022469;28;20116;-74
2023/10/31 09:59:47;;;;;;;15.45;13.95;;;;;;;11.02;100.00;100066.31;5020210;28;20025;-74
2023/10/31 10:02:12;;;;;;;15.02;13.27;;;;;;;11.27;100.00;100073.56;5018392;28;20021;-74
2023/10/31 10:04:38;;;;;;;15.30;13.70;;;;;;;11.62;100.00;100073.91;5018729;28;20048;-74
2023/10/31 10:07:05;;;;;;;14.52;13.02;;;;;;;11.93;100.00;100074.50;5015339;28;20829;-76
2023/10/31 10:09:32;;;;;;;13.98;12.60;;;;;;;12.27;100.00;100080.16;5017368;28;20300;-76
2023/10/31 10:11:59;;;;;;;14.18;12.75;;;;;;;12.40;100.00;100089.84;5017380;28;20026;-76
2023/10/31 10:14:28;;;;;;;14.60;12.50;;;;;;;12.09;100.00;100075.16;5019519;28;20079;-75
2023/10/31 10:16:53;;;;;;;13.73;12.43;;;;;;;11.75;100.00;100087.25;5023419;28;20028;-76
2023/10/31 10:19:20;;;;;;;13.45;12.13;;;;;;;11.58;100.00;100091.06;5016263;28;20029;-75
2023/10/31 10:21:51;;;;;;;14.38;12.77;;;;;;;11.29;100.00;100100.13;5019329;28;20025;-75
2023/10/31 10:24:18;;;;;;;13.32;12.00;;;;;;;11.13;100.00;100105.59;5021789;28;20021;-75
2023/10/31 10:26:44;;;;;;;14.10;12.68;;;;;;;11.03;100.00;100104.47;5020113;28;20046;-74
2023/10/31 10:29:09;;;;;;;14.15;12.65;;;;;;;11.05;100.00;100110.56;5020122;28;20091;-74
2023/10/31 10:31:35;;;;;;;15.43;13.30;;;;;;;10.95;100.00;100113.81;5020872;28;20276;-74
2023/10/31 10:34:03;;;;;;;15.40;13.77;;;;;;;10.98;100.00;100116.25;5019990;28;20403;-76
2023/10/31 10:36:32;;;;;;;13.82;12.45;;;;;;;11.00;100.00;100128.66;5010460;28;20458;-76
2023/10/31 10:38:59;;;;;;;14.68;13.13;;;;;;;10.88;100.00;100112.50;5020001;28;20105;-74
2023/10/31 10:41:28;;;;;;;14.18;12.77;;;;;;;10.90;100.00;100126.53;5017483;28;20044;-74
2023/10/31 10:44:05;;;;;;;13.68;12.38;;;;;;;10.78;100.00;100134.44;5014670;28;20198;-74
2023/10/31 10:46:35;;;;;;;13.68;12.38;;;;;;;10.62;100.00;100137.25;5037689;28;20060;-75
2023/10/31 10:49:05;;;;;;;14.60;13.02;;;;;;;10.64;100.00;100132.66;5004142;28;20311;-76
2023/10/31 10:51:54;;;;;;;15.27;12.07;;;;;;;10.71;100.00;100131.34;5015632;28;20116;-75
2023/10/31 10:54:31;;;;;;;12.82;11.23;;;;;;;10.83;100.00;100133.22;5014141;28;20057;-77
2023/10/31 10:57:12;;;;;;;16.10;12.35;;;;;;;10.90;100.00;100139.84;5020390;28;20061;-76
2023/10/31 10:59:43;;;;;;;12.68;11.48;;;;;;;10.80;100.00;100141.41;5023218;28;20561;-77
2023/10/31 11:02:14;;;;;;;12.85;11.70;;;;;;;10.69;100.00;100147.38;5020358;28;20018;-77
2023/10/31 11:04:42;;;;;;;12.48;11.27;;;;;;;10.60;100.00;100142.63;5019265;28;20087;-76
2023/10/31 11:07:08;;;;;;;14.10;11.60;;;;;;;10.77;100.00;100140.75;5018369;28;20060;-76
2023/10/31 11:09:35;;;;;;;12.50;10.77;;;;;;;11.22;100.00;100139.63;5020031;28;20080;-76